sensor_id;sensor_type;location;lat;lon;timestamp;P1;durP1;ratioP1;P2;durP2;ratioP2
57443;SDS011;43289;52.962;6.196;2023-02-17T00:00:35;38.55;;;21.27;;
57443;SDS011;43289;52.962;6.196;2023-02-17T00:03:03;46.67;;;24.02;;
57443;SDS011;43289;52.962;6.196;2023-02-17T00:05:29;42.55;;;23.60;;
57443;SDS011;43289;52.962;6.196;2023-02-17T00:07:55;39.50;;;22.25;;
57443;SDS011;43289;52.962;6.196;2023-02-17T00:10:21;43.58;;;23.85;;
57443;SDS011;43289;52.962;6.196;2023-02-17T00:12:47;34.53;;;19.05;;
57443;SDS011;43289;52.962;6.196;2023-02-17T00:15:13;49.17;;;23.35;;
57443;SDS011;43289;52.962;6.196;2023-02-17T00:17:39;44.72;;;24.92;;
57443;SDS011;43289;52.962;6.196;2023-02-17T00:20:05;32.20;;;18.90;;
57443;SDS011;43289;52.962;6.196;2023-02-17T00:22:31;36.70;;;21.90;;
57443;SDS011;43289;52.962;6.196;2023-02-17T00:24:57;42.03;;;21.75;;
57443;SDS011;43289;52.962;6.196;2023-02-17T00:27:23;31.00;;;17.35;;
57443;SDS011;43289;52.962;6.196;2023-02-17T00:29:49;33.45;;;18.55;;
57443;SDS011;43289;52.962;6.196;2023-02-17T00:32:15;46.30;;;23.75;;
57443;SDS011;43289;52.962;6.196;2023-02-17T00:34:41;42.38;;;23.52;;
57443;SDS011;43289;52.962;6.196;2023-02-17T00:37:07;39.22;;;20.95;;
57443;SDS011;43289;52.962;6.196;2023-02-17T00:39:34;43.85;;;23.83;;
57443;SDS011;43289;52.962;6.196;2023-02-17T00:42:00;30.23;;;17.92;;
57443;SDS011;43289;52.962;6.196;2023-02-17T00:44:26;34.95;;;20.35;;
57443;SDS011;43289;52.962;6.196;2023-02-17T00:46:52;31.92;;;20.40;;
57443;SDS011;43289;52.962;6.196;2023-02-17T00:49:22;45.85;;;25.35;;
57443;SDS011;43289;52.962;6.196;2023-02-17T00:51:48;41.80;;;23.58;;
57443;SDS011;43289;52.962;6.196;2023-02-17T00:54:14;40.10;;;24.40;;
57443;SDS011;43289;52.962;6.196;2023-02-17T00:56:41;46.50;;;25.13;;
57443;SDS011;43289;52.962;6.196;2023-02-17T00:59:07;46.58;;;25.52;;
57443;SDS011;43289;52.962;6.196;2023-02-17T01:01:33;47.10;;;24.33;;
57443;SDS011;43289;52.962;6.196;2023-02-17T01:03:59;45.22;;;25.90;;
57443;SDS011;43289;52.962;6.196;2023-02-17T01:06:33;50.17;;;26.02;;
57443;SDS011;43289;52.962;6.196;2023-02-17T01:09:00;40.20;;;24.55;;
57443;SDS011;43289;52.962;6.196;2023-02-17T01:11:27;46.08;;;25.90;;
57443;SDS011;43289;52.962;6.196;2023-02-17T01:13:54;49.75;;;26.02;;
57443;SDS011;43289;52.962;6.196;2023-02-17T01:16:24;44.28;;;25.77;;
57443;SDS011;43289;52.962;6.196;2023-02-17T01:18:50;38.67;;;23.30;;
57443;SDS011;43289;52.962;6.196;2023-02-17T01:21:18;53.28;;;28.45;;
57443;SDS011;43289;52.962;6.196;2023-02-17T01:23:44;46.30;;;24.60;;
57443;SDS011;43289;52.962;6.196;2023-02-17T01:26:14;40.25;;;24.48;;
57443;SDS011;43289;52.962;6.196;2023-02-17T01:28:40;42.88;;;23.35;;
57443;SDS011;43289;52.962;6.196;2023-02-17T01:31:06;45.80;;;27.33;;
57443;SDS011;43289;52.962;6.196;2023-02-17T01:33:32;45.97;;;25.40;;
57443;SDS011;43289;52.962;6.196;2023-02-17T01:36:02;45.65;;;25.67;;
57443;SDS011;43289;52.962;6.196;2023-02-17T01:38:28;43.47;;;24.98;;
57443;SDS011;43289;52.962;6.196;2023-02-17T01:40:55;42.78;;;24.50;;
57443;SDS011;43289;52.962;6.196;2023-02-17T01:43:21;38.08;;;24.30;;
57443;SDS011;43289;52.962;6.196;2023-02-17T01:45:51;43.78;;;25.10;;
57443;SDS011;43289;52.962;6.196;2023-02-17T01:48:18;40.88;;;25.92;;
57443;SDS011;43289;52.962;6.196;2023-02-17T01:50:45;45.40;;;23.58;;
57443;SDS011;43289;52.962;6.196;2023-02-17T01:53:13;25.05;;;15.35;;
57443;SDS011;43289;52.962;6.196;2023-02-17T01:55:42;42.35;;;22.58;;
57443;SDS011;43289;52.962;6.196;2023-02-17T01:58:10;45.80;;;25.98;;
57443;SDS011;43289;52.962;6.196;2023-02-17T02:00:36;36.80;;;20.63;;
57443;SDS011;43289;52.962;6.196;2023-02-17T02:03:03;50.85;;;25.52;;
57443;SDS011;43289;52.962;6.196;2023-02-17T02:05:30;44.25;;;25.80;;
57443;SDS011;43289;52.962;6.196;2023-02-17T02:07:56;44.92;;;25.45;;
57443;SDS011;43289;52.962;6.196;2023-02-17T02:10:22;41.08;;;24.77;;
57443;SDS011;43289;52.962;6.196;2023-02-17T02:12:49;40.88;;;23.40;;
57443;SDS011;43289;52.962;6.196;2023-02-17T02:15:17;52.45;;;26.13;;
57443;SDS011;43289;52.962;6.196;2023-02-17T02:20:22;37.60;;;21.40;;
57443;SDS011;43289;52.962;6.196;2023-02-17T02:25:48;42.92;;;24.20;;
57443;SDS011;43289;52.962;6.196;2023-02-17T02:31:02;41.15;;;21.48;;
57443;SDS011;43289;52.962;6.196;2023-02-17T02:33:39;36.63;;;20.98;;
57443;SDS011;43289;52.962;6.196;2023-02-17T02:41:09;42.92;;;23.60;;
57443;SDS011;43289;52.962;6.196;2023-02-17T02:43:36;40.83;;;22.70;;
57443;SDS011;43289;52.962;6.196;2023-02-17T02:46:03;45.25;;;25.50;;
57443;SDS011;43289;52.962;6.196;2023-02-17T02:48:29;48.65;;;24.92;;
57443;SDS011;43289;52.962;6.196;2023-02-17T02:51:04;52.38;;;26.23;;
57443;SDS011;43289;52.962;6.196;2023-02-17T03:08:59;45.22;;;25.35;;
57443;SDS011;43289;52.962;6.196;2023-02-17T03:11:27;45.60;;;24.50;;
57443;SDS011;43289;52.962;6.196;2023-02-17T03:14:00;37.45;;;23.98;;
57443;SDS011;43289;52.962;6.196;2023-02-17T03:16:27;39.95;;;23.27;;
57443;SDS011;43289;52.962;6.196;2023-02-17T03:18:53;37.90;;;21.60;;
57443;SDS011;43289;52.962;6.196;2023-02-17T03:21:19;39.05;;;21.90;;
57443;SDS011;43289;52.962;6.196;2023-02-17T03:23:45;28.65;;;15.75;;
57443;SDS011;43289;52.962;6.196;2023-02-17T03:26:13;38.70;;;21.75;;
57443;SDS011;43289;52.962;6.196;2023-02-17T03:28:39;37.65;;;21.88;;
57443;SDS011;43289;52.962;6.196;2023-02-17T03:31:05;37.72;;;22.13;;
57443;SDS011;43289;52.962;6.196;2023-02-17T03:33:31;38.63;;;20.48;;
57443;SDS011;43289;52.962;6.196;2023-02-17T03:35:57;33.90;;;19.80;;
57443;SDS011;43289;52.962;6.196;2023-02-17T03:38:23;32.53;;;20.02;;
57443;SDS011;43289;52.962;6.196;2023-02-17T03:40:49;37.40;;;21.00;;
57443;SDS011;43289;52.962;6.196;2023-02-17T03:43:17;38.03;;;21.60;;
57443;SDS011;43289;52.962;6.196;2023-02-17T03:45:43;31.75;;;17.38;;
57443;SDS011;43289;52.962;6.196;2023-02-17T03:48:09;34.17;;;18.77;;
57443;SDS011;43289;52.962;6.196;2023-02-17T03:50:35;29.65;;;16.42;;
57443;SDS011;43289;52.962;6.196;2023-02-17T03:53:01;35.10;;;19.60;;
57443;SDS011;43289;52.962;6.196;2023-02-17T03:55:27;27.65;;;16.33;;
57443;SDS011;43289;52.962;6.196;2023-02-17T03:57:53;26.83;;;16.52;;
57443;SDS011;43289;52.962;6.196;2023-02-17T04:00:19;28.42;;;18.77;;
57443;SDS011;43289;52.962;6.196;2023-02-17T04:02:45;30.05;;;16.50;;
57443;SDS011;43289;52.962;6.196;2023-02-17T04:05:12;29.00;;;18.15;;
57443;SDS011;43289;52.962;6.196;2023-02-17T04:07:38;31.92;;;16.83;;
57443;SDS011;43289;52.962;6.196;2023-02-17T04:10:05;27.83;;;16.23;;
57443;SDS011;43289;52.962;6.196;2023-02-17T04:12:31;30.80;;;16.98;;
57443;SDS011;43289;52.962;6.196;2023-02-17T04:14:57;27.70;;;17.60;;
57443;SDS011;43289;52.962;6.196;2023-02-17T04:17:23;30.15;;;18.13;;
57443;SDS011;43289;52.962;6.196;2023-02-17T04:19:49;32.88;;;18.13;;
57443;SDS011;43289;52.962;6.196;2023-02-17T04:22:15;34.65;;;19.38;;
57443;SDS011;43289;52.962;6.196;2023-02-17T04:24:40;32.17;;;19.30;;
57443;SDS011;43289;52.962;6.196;2023-02-17T04:27:07;27.35;;;17.38;;
57443;SDS011;43289;52.962;6.196;2023-02-17T04:29:33;35.28;;;19.25;;
57443;SDS011;43289;52.962;6.196;2023-02-17T04:31:59;33.58;;;18.65;;
57443;SDS011;43289;52.962;6.196;2023-02-17T04:34:27;32.58;;;18.92;;
57443;SDS011;43289;52.962;6.196;2023-02-17T04:36:53;19.88;;;10.23;;
57443;SDS011;43289;52.962;6.196;2023-02-17T04:39:19;34.10;;;17.90;;
57443;SDS011;43289;52.962;6.196;2023-02-17T04:41:45;34.83;;;18.05;;
57443;SDS011;43289;52.962;6.196;2023-02-17T04:44:11;30.88;;;18.85;;
57443;SDS011;43289;52.962;6.196;2023-02-17T04:46:37;28.05;;;16.20;;
57443;SDS011;43289;52.962;6.196;2023-02-17T04:49:03;32.05;;;18.05;;
57443;SDS011;43289;52.962;6.196;2023-02-17T04:51:29;32.97;;;17.65;;
57443;SDS011;43289;52.962;6.196;2023-02-17T04:53:55;24.10;;;13.20;;
57443;SDS011;43289;52.962;6.196;2023-02-17T04:56:21;39.13;;;19.25;;
57443;SDS011;43289;52.962;6.196;2023-02-17T04:58:47;21.55;;;12.75;;
57443;SDS011;43289;52.962;6.196;2023-02-17T05:01:13;30.73;;;18.02;;
57443;SDS011;43289;52.962;6.196;2023-02-17T05:03:39;28.88;;;14.93;;
57443;SDS011;43289;52.962;6.196;2023-02-17T05:06:06;32.28;;;18.20;;
57443;SDS011;43289;52.962;6.196;2023-02-17T05:08:32;31.17;;;15.80;;
57443;SDS011;43289;52.962;6.196;2023-02-17T05:10:58;31.70;;;16.77;;
57443;SDS011;43289;52.962;6.196;2023-02-17T05:13:24;28.45;;;16.90;;
57443;SDS011;43289;52.962;6.196;2023-02-17T05:15:51;32.80;;;18.13;;
57443;SDS011;43289;52.962;6.196;2023-02-17T05:18:17;30.40;;;17.45;;
57443;SDS011;43289;52.962;6.196;2023-02-17T05:20:43;31.60;;;17.83;;
57443;SDS011;43289;52.962;6.196;2023-02-17T05:23:09;39.38;;;20.20;;
57443;SDS011;43289;52.962;6.196;2023-02-17T05:25:35;31.08;;;17.90;;
57443;SDS011;43289;52.962;6.196;2023-02-17T05:28:01;30.10;;;17.20;;
57443;SDS011;43289;52.962;6.196;2023-02-17T05:30:27;14.88;;;7.22;;
57443;SDS011;43289;52.962;6.196;2023-02-17T05:32:53;36.85;;;19.60;;
57443;SDS011;43289;52.962;6.196;2023-02-17T05:35:21;31.95;;;16.88;;
57443;SDS011;43289;52.962;6.196;2023-02-17T05:37:47;32.08;;;16.40;;
57443;SDS011;43289;52.962;6.196;2023-02-17T05:40:13;36.65;;;17.58;;
57443;SDS011;43289;52.962;6.196;2023-02-17T05:42:39;34.53;;;17.77;;
57443;SDS011;43289;52.962;6.196;2023-02-17T05:45:05;33.47;;;18.92;;
57443;SDS011;43289;52.962;6.196;2023-02-17T05:47:31;19.33;;;11.65;;
57443;SDS011;43289;52.962;6.196;2023-02-17T05:49:59;35.30;;;17.90;;
57443;SDS011;43289;52.962;6.196;2023-02-17T05:52:26;35.78;;;17.50;;
57443;SDS011;43289;52.962;6.196;2023-02-17T05:54:52;34.38;;;19.30;;
57443;SDS011;43289;52.962;6.196;2023-02-17T05:57:18;28.38;;;16.60;;
57443;SDS011;43289;52.962;6.196;2023-02-17T05:59:45;38.15;;;19.17;;
57443;SDS011;43289;52.962;6.196;2023-02-17T06:02:11;36.28;;;17.70;;
57443;SDS011;43289;52.962;6.196;2023-02-17T06:04:37;24.23;;;13.20;;
57443;SDS011;43289;52.962;6.196;2023-02-17T06:07:03;32.67;;;19.13;;
57443;SDS011;43289;52.962;6.196;2023-02-17T06:09:30;29.02;;;15.68;;
57443;SDS011;43289;52.962;6.196;2023-02-17T06:11:56;36.15;;;19.30;;
57443;SDS011;43289;52.962;6.196;2023-02-17T06:14:22;32.13;;;16.95;;
57443;SDS011;43289;52.962;6.196;2023-02-17T06:16:49;39.78;;;20.48;;
57443;SDS011;43289;52.962;6.196;2023-02-17T06:19:15;26.65;;;14.48;;
57443;SDS011;43289;52.962;6.196;2023-02-17T06:21:41;33.25;;;18.30;;
57443;SDS011;43289;52.962;6.196;2023-02-17T06:24:08;28.85;;;14.38;;
57443;SDS011;43289;52.962;6.196;2023-02-17T06:26:34;34.40;;;17.00;;
57443;SDS011;43289;52.962;6.196;2023-02-17T06:29:00;38.70;;;17.67;;
57443;SDS011;43289;52.962;6.196;2023-02-17T06:31:26;23.85;;;11.80;;
57443;SDS011;43289;52.962;6.196;2023-02-17T06:33:52;31.38;;;15.65;;
57443;SDS011;43289;52.962;6.196;2023-02-17T06:36:18;35.85;;;17.13;;
57443;SDS011;43289;52.962;6.196;2023-02-17T06:38:44;34.25;;;15.13;;
57443;SDS011;43289;52.962;6.196;2023-02-17T06:41:10;28.05;;;13.07;;
57443;SDS011;43289;52.962;6.196;2023-02-17T06:43:36;36.00;;;16.73;;
57443;SDS011;43289;52.962;6.196;2023-02-17T06:46:02;41.53;;;19.52;;
57443;SDS011;43289;52.962;6.196;2023-02-17T06:48:28;32.35;;;16.85;;
57443;SDS011;43289;52.962;6.196;2023-02-17T06:50:57;26.50;;;13.15;;
57443;SDS011;43289;52.962;6.196;2023-02-17T06:53:23;33.03;;;17.13;;
57443;SDS011;43289;52.962;6.196;2023-02-17T06:55:49;28.88;;;15.82;;
57443;SDS011;43289;52.962;6.196;2023-02-17T06:58:15;42.17;;;18.85;;
57443;SDS011;43289;52.962;6.196;2023-02-17T07:00:41;34.33;;;17.90;;
57443;SDS011;43289;52.962;6.196;2023-02-17T07:03:08;29.90;;;15.82;;
57443;SDS011;43289;52.962;6.196;2023-02-17T07:05:35;38.42;;;17.52;;
57443;SDS011;43289;52.962;6.196;2023-02-17T07:08:03;21.42;;;11.15;;
57443;SDS011;43289;52.962;6.196;2023-02-17T07:10:29;31.33;;;12.60;;
57443;SDS011;43289;52.962;6.196;2023-02-17T07:12:55;38.13;;;18.52;;
57443;SDS011;43289;52.962;6.196;2023-02-17T07:15:21;33.80;;;18.25;;
57443;SDS011;43289;52.962;6.196;2023-02-17T07:17:47;34.97;;;16.40;;
57443;SDS011;43289;52.962;6.196;2023-02-17T07:20:13;37.72;;;17.90;;
57443;SDS011;43289;52.962;6.196;2023-02-17T07:22:39;35.00;;;19.75;;
57443;SDS011;43289;52.962;6.196;2023-02-17T07:25:06;31.88;;;14.80;;
57443;SDS011;43289;52.962;6.196;2023-02-17T07:27:33;41.85;;;18.75;;
57443;SDS011;43289;52.962;6.196;2023-02-17T07:29:59;31.00;;;16.55;;
57443;SDS011;43289;52.962;6.196;2023-02-17T07:32:25;35.55;;;19.15;;
57443;SDS011;43289;52.962;6.196;2023-02-17T07:34:51;40.08;;;18.10;;
57443;SDS011;43289;52.962;6.196;2023-02-17T07:37:17;35.03;;;16.10;;
57443;SDS011;43289;52.962;6.196;2023-02-17T07:39:45;31.63;;;16.90;;
57443;SDS011;43289;52.962;6.196;2023-02-17T07:42:12;36.35;;;17.35;;
57443;SDS011;43289;52.962;6.196;2023-02-17T07:44:40;31.23;;;18.00;;
57443;SDS011;43289;52.962;6.196;2023-02-17T07:47:06;32.92;;;13.25;;
57443;SDS011;43289;52.962;6.196;2023-02-17T07:49:33;30.45;;;15.75;;
57443;SDS011;43289;52.962;6.196;2023-02-17T07:51:59;35.60;;;15.68;;
57443;SDS011;43289;52.962;6.196;2023-02-17T07:54:25;36.28;;;16.58;;
57443;SDS011;43289;52.962;6.196;2023-02-17T07:56:51;28.13;;;13.48;;
57443;SDS011;43289;52.962;6.196;2023-02-17T07:59:17;31.80;;;14.32;;
57443;SDS011;43289;52.962;6.196;2023-02-17T08:01:42;22.83;;;11.80;;
57443;SDS011;43289;52.962;6.196;2023-02-17T08:04:09;33.38;;;17.50;;
57443;SDS011;43289;52.962;6.196;2023-02-17T08:06:36;31.55;;;17.02;;
57443;SDS011;43289;52.962;6.196;2023-02-17T08:09:05;31.85;;;17.05;;
57443;SDS011;43289;52.962;6.196;2023-02-17T08:11:49;34.35;;;16.02;;
57443;SDS011;43289;52.962;6.196;2023-02-17T08:14:34;26.20;;;12.88;;
57443;SDS011;43289;52.962;6.196;2023-02-17T08:17:02;23.23;;;13.50;;
57443;SDS011;43289;52.962;6.196;2023-02-17T08:19:28;20.65;;;11.57;;
57443;SDS011;43289;52.962;6.196;2023-02-17T08:21:54;27.95;;;13.27;;
57443;SDS011;43289;52.962;6.196;2023-02-17T08:24:20;32.25;;;14.57;;
57443;SDS011;43289;52.962;6.196;2023-02-17T08:26:46;26.73;;;11.73;;
57443;SDS011;43289;52.962;6.196;2023-02-17T08:29:15;28.95;;;15.05;;
57443;SDS011;43289;52.962;6.196;2023-02-17T08:31:41;22.63;;;11.88;;
57443;SDS011;43289;52.962;6.196;2023-02-17T08:34:09;29.05;;;14.18;;
57443;SDS011;43289;52.962;6.196;2023-02-17T08:36:35;24.00;;;12.15;;
57443;SDS011;43289;52.962;6.196;2023-02-17T08:39:02;19.02;;;10.60;;
57443;SDS011;43289;52.962;6.196;2023-02-17T08:41:29;28.77;;;13.15;;
57443;SDS011;43289;52.962;6.196;2023-02-17T08:43:57;20.30;;;11.43;;
57443;SDS011;43289;52.962;6.196;2023-02-17T08:46:23;21.45;;;11.50;;
57443;SDS011;43289;52.962;6.196;2023-02-17T08:48:49;25.08;;;12.98;;
57443;SDS011;43289;52.962;6.196;2023-02-17T08:51:16;18.23;;;11.10;;
57443;SDS011;43289;52.962;6.196;2023-02-17T08:53:43;23.45;;;10.52;;
57443;SDS011;43289;52.962;6.196;2023-02-17T08:56:10;22.73;;;11.38;;
57443;SDS011;43289;52.962;6.196;2023-02-17T08:58:36;23.95;;;11.23;;
57443;SDS011;43289;52.962;6.196;2023-02-17T09:01:03;25.60;;;12.57;;
57443;SDS011;43289;52.962;6.196;2023-02-17T09:03:31;21.30;;;10.25;;
57443;SDS011;43289;52.962;6.196;2023-02-17T09:05:57;19.38;;;10.38;;
57443;SDS011;43289;52.962;6.196;2023-02-17T09:08:23;25.17;;;11.88;;
57443;SDS011;43289;52.962;6.196;2023-02-17T09:10:50;18.17;;;10.60;;
57443;SDS011;43289;52.962;6.196;2023-02-17T09:13:16;21.02;;;11.52;;
57443;SDS011;43289;52.962;6.196;2023-02-17T09:15:43;16.35;;;10.45;;
57443;SDS011;43289;52.962;6.196;2023-02-17T09:18:09;17.40;;;9.40;;
57443;SDS011;43289;52.962;6.196;2023-02-17T09:20:41;13.85;;;7.63;;
57443;SDS011;43289;52.962;6.196;2023-02-17T09:23:07;19.85;;;10.68;;
57443;SDS011;43289;52.962;6.196;2023-02-17T09:25:33;18.75;;;9.40;;
57443;SDS011;43289;52.962;6.196;2023-02-17T09:27:59;17.25;;;9.50;;
57443;SDS011;43289;52.962;6.196;2023-02-17T09:33:27;14.77;;;8.38;;
57443;SDS011;43289;52.962;6.196;2023-02-17T09:35:53;16.70;;;9.18;;
57443;SDS011;43289;52.962;6.196;2023-02-17T09:38:19;18.15;;;8.48;;
57443;SDS011;43289;52.962;6.196;2023-02-17T09:40:49;20.65;;;10.73;;
57443;SDS011;43289;52.962;6.196;2023-02-17T09:43:20;18.13;;;9.15;;
57443;SDS011;43289;52.962;6.196;2023-02-17T09:45:49;9.25;;;5.82;;
57443;SDS011;43289;52.962;6.196;2023-02-17T09:48:16;14.95;;;8.02;;
57443;SDS011;43289;52.962;6.196;2023-02-17T09:50:45;21.27;;;9.88;;
57443;SDS011;43289;52.962;6.196;2023-02-17T09:55:52;20.60;;;9.35;;
57443;SDS011;43289;52.962;6.196;2023-02-17T09:58:33;17.00;;;8.23;;
57443;SDS011;43289;52.962;6.196;2023-02-17T10:01:01;17.48;;;8.90;;
57443;SDS011;43289;52.962;6.196;2023-02-17T10:03:29;17.67;;;9.15;;
57443;SDS011;43289;52.962;6.196;2023-02-17T10:11:30;14.00;;;6.47;;
57443;SDS011;43289;52.962;6.196;2023-02-17T10:14:05;12.25;;;5.80;;
57443;SDS011;43289;52.962;6.196;2023-02-17T10:16:35;11.18;;;6.13;;
57443;SDS011;43289;52.962;6.196;2023-02-17T10:19:20;13.18;;;6.78;;
57443;SDS011;43289;52.962;6.196;2023-02-17T10:21:54;14.68;;;6.28;;
57443;SDS011;43289;52.962;6.196;2023-02-17T10:24:22;19.55;;;8.38;;
57443;SDS011;43289;52.962;6.196;2023-02-17T10:26:56;12.52;;;6.63;;
57443;SDS011;43289;52.962;6.196;2023-02-17T10:32:09;15.75;;;7.05;;
57443;SDS011;43289;52.962;6.196;2023-02-17T10:39:57;14.27;;;4.78;;
57443;SDS011;43289;52.962;6.196;2023-02-17T10:42:30;13.55;;;6.28;;
57443;SDS011;43289;52.962;6.196;2023-02-17T10:45:03;13.98;;;6.30;;
57443;SDS011;43289;52.962;6.196;2023-02-17T10:47:30;11.05;;;5.90;;
57443;SDS011;43289;52.962;6.196;2023-02-17T10:49:58;15.25;;;7.78;;
57443;SDS011;43289;52.962;6.196;2023-02-17T10:52:35;14.15;;;6.00;;
57443;SDS011;43289;52.962;6.196;2023-02-17T10:55:04;10.65;;;5.53;;
57443;SDS011;43289;52.962;6.196;2023-02-17T10:57:32;12.65;;;6.10;;
57443;SDS011;43289;52.962;6.196;2023-02-17T11:00:01;19.75;;;6.75;;
57443;SDS011;43289;52.962;6.196;2023-02-17T11:02:39;12.65;;;5.03;;
57443;SDS011;43289;52.962;6.196;2023-02-17T11:05:07;15.05;;;4.97;;
57443;SDS011;43289;52.962;6.196;2023-02-17T11:07:45;12.68;;;6.10;;
57443;SDS011;43289;52.962;6.196;2023-02-17T11:10:31;9.18;;;4.60;;
57443;SDS011;43289;52.962;6.196;2023-02-17T11:12:58;15.60;;;5.97;;
57443;SDS011;43289;52.962;6.196;2023-02-17T11:15:31;14.10;;;6.28;;
57443;SDS011;43289;52.962;6.196;2023-02-17T11:17:59;13.00;;;6.10;;
57443;SDS011;43289;52.962;6.196;2023-02-17T11:20:27;12.63;;;6.50;;
57443;SDS011;43289;52.962;6.196;2023-02-17T11:25:29;12.27;;;5.28;;
57443;SDS011;43289;52.962;6.196;2023-02-17T11:27:57;13.52;;;3.97;;
57443;SDS011;43289;52.962;6.196;2023-02-17T11:30:24;14.77;;;5.45;;
57443;SDS011;43289;52.962;6.196;2023-02-17T11:32:52;12.85;;;4.90;;
57443;SDS011;43289;52.962;6.196;2023-02-17T11:35:26;9.20;;;3.58;;
57443;SDS011;43289;52.962;6.196;2023-02-17T11:38:00;13.10;;;5.03;;
57443;SDS011;43289;52.962;6.196;2023-02-17T11:40:31;11.77;;;4.60;;
57443;SDS011;43289;52.962;6.196;2023-02-17T11:42:58;7.43;;;3.90;;
57443;SDS011;43289;52.962;6.196;2023-02-17T11:45:27;11.15;;;4.85;;
57443;SDS011;43289;52.962;6.196;2023-02-17T11:48:29;15.88;;;3.80;;
57443;SDS011;43289;52.962;6.196;2023-02-17T11:50:49;17.20;;;5.78;;
57443;SDS011;43289;52.962;6.196;2023-02-17T12:09:03;10.50;;;3.22;;
57443;SDS011;43289;52.962;6.196;2023-02-17T12:11:46;14.38;;;3.65;;
57443;SDS011;43289;52.962;6.196;2023-02-17T12:16:50;10.00;;;3.47;;
57443;SDS011;43289;52.962;6.196;2023-02-17T12:27:02;14.23;;;3.28;;
57443;SDS011;43289;52.962;6.196;2023-02-17T12:32:02;10.77;;;2.63;;
57443;SDS011;43289;52.962;6.196;2023-02-17T12:37:22;10.25;;;3.63;;
57443;SDS011;43289;52.962;6.196;2023-02-17T12:39:50;8.35;;;3.72;;
57443;SDS011;43289;52.962;6.196;2023-02-17T12:42:37;9.93;;;3.50;;
57443;SDS011;43289;52.962;6.196;2023-02-17T12:45:31;8.68;;;3.30;;
57443;SDS011;43289;52.962;6.196;2023-02-17T12:48:05;10.35;;;2.95;;
57443;SDS011;43289;52.962;6.196;2023-02-17T12:50:38;10.88;;;3.40;;
57443;SDS011;43289;52.962;6.196;2023-02-17T12:53:05;9.48;;;2.97;;
57443;SDS011;43289;52.962;6.196;2023-02-17T12:55:39;12.52;;;3.10;;
57443;SDS011;43289;52.962;6.196;2023-02-17T12:58:15;6.63;;;2.50;;
57443;SDS011;43289;52.962;6.196;2023-02-17T13:00:42;9.85;;;2.83;;
57443;SDS011;43289;52.962;6.196;2023-02-17T13:03:09;10.30;;;2.83;;
57443;SDS011;43289;52.962;6.196;2023-02-17T13:05:41;7.97;;;2.72;;
57443;SDS011;43289;52.962;6.196;2023-02-17T13:08:10;8.43;;;2.75;;
57443;SDS011;43289;52.962;6.196;2023-02-17T13:10:39;9.85;;;3.30;;
57443;SDS011;43289;52.962;6.196;2023-02-17T13:13:09;6.55;;;2.30;;
57443;SDS011;43289;52.962;6.196;2023-02-17T13:15:37;8.38;;;3.20;;
57443;SDS011;43289;52.962;6.196;2023-02-17T13:18:10;8.05;;;3.05;;
57443;SDS011;43289;52.962;6.196;2023-02-17T13:20:41;8.75;;;3.63;;
57443;SDS011;43289;52.962;6.196;2023-02-17T13:23:11;8.63;;;2.90;;
57443;SDS011;43289;52.962;6.196;2023-02-17T13:25:37;7.75;;;3.08;;
57443;SDS011;43289;52.962;6.196;2023-02-17T13:30:48;8.50;;;2.80;;
57443;SDS011;43289;52.962;6.196;2023-02-17T13:35:45;6.80;;;3.03;;
57443;SDS011;43289;52.962;6.196;2023-02-17T13:38:11;6.93;;;3.10;;
57443;SDS011;43289;52.962;6.196;2023-02-17T13:40:38;10.82;;;3.63;;
57443;SDS011;43289;52.962;6.196;2023-02-17T13:45:56;9.70;;;3.20;;
57443;SDS011;43289;52.962;6.196;2023-02-17T13:48:24;8.35;;;2.75;;
57443;SDS011;43289;52.962;6.196;2023-02-17T13:50:52;8.30;;;3.58;;
57443;SDS011;43289;52.962;6.196;2023-02-17T13:55:51;11.90;;;3.88;;
57443;SDS011;43289;52.962;6.196;2023-02-17T13:58:25;7.80;;;3.25;;
57443;SDS011;43289;52.962;6.196;2023-02-17T14:00:52;9.65;;;3.65;;
57443;SDS011;43289;52.962;6.196;2023-02-17T14:03:20;9.73;;;2.95;;
57443;SDS011;43289;52.962;6.196;2023-02-17T14:05:47;7.60;;;3.10;;
57443;SDS011;43289;52.962;6.196;2023-02-17T14:11:02;10.48;;;3.03;;
57443;SDS011;43289;52.962;6.196;2023-02-17T14:13:29;9.85;;;3.00;;
57443;SDS011;43289;52.962;6.196;2023-02-17T14:15:56;8.77;;;2.90;;
57443;SDS011;43289;52.962;6.196;2023-02-17T14:18:27;8.75;;;2.63;;
57443;SDS011;43289;52.962;6.196;2023-02-17T14:23:38;12.35;;;2.42;;
57443;SDS011;43289;52.962;6.196;2023-02-17T14:26:46;4.30;;;2.38;;
57443;SDS011;43289;52.962;6.196;2023-02-17T14:29:13;7.60;;;2.13;;
57443;SDS011;43289;52.962;6.196;2023-02-17T14:31:46;9.82;;;2.55;;
57443;SDS011;43289;52.962;6.196;2023-02-17T14:34:16;7.13;;;2.63;;
57443;SDS011;43289;52.962;6.196;2023-02-17T14:36:49;8.52;;;2.40;;
57443;SDS011;43289;52.962;6.196;2023-02-17T14:39:15;10.60;;;3.00;;
57443;SDS011;43289;52.962;6.196;2023-02-17T14:41:41;7.60;;;3.13;;
57443;SDS011;43289;52.962;6.196;2023-02-17T14:44:07;7.10;;;2.35;;
57443;SDS011;43289;52.962;6.196;2023-02-17T14:46:33;7.95;;;2.50;;
57443;SDS011;43289;52.962;6.196;2023-02-17T14:49:02;7.55;;;2.55;;
57443;SDS011;43289;52.962;6.196;2023-02-17T14:51:32;8.27;;;2.47;;
57443;SDS011;43289;52.962;6.196;2023-02-17T14:54:03;7.95;;;2.60;;
57443;SDS011;43289;52.962;6.196;2023-02-17T14:56:36;6.10;;;2.70;;
57443;SDS011;43289;52.962;6.196;2023-02-17T14:59:04;9.90;;;2.60;;
57443;SDS011;43289;52.962;6.196;2023-02-17T15:01:30;10.98;;;2.80;;
57443;SDS011;43289;52.962;6.196;2023-02-17T15:03:56;7.82;;;2.83;;
57443;SDS011;43289;52.962;6.196;2023-02-17T15:06:23;11.50;;;3.20;;
57443;SDS011;43289;52.962;6.196;2023-02-17T15:08:50;15.38;;;3.00;;
57443;SDS011;43289;52.962;6.196;2023-02-17T15:11:30;8.77;;;2.75;;
57443;SDS011;43289;52.962;6.196;2023-02-17T15:13:56;7.43;;;2.25;;
57443;SDS011;43289;52.962;6.196;2023-02-17T15:16:22;16.27;;;4.07;;
57443;SDS011;43289;52.962;6.196;2023-02-17T15:18:48;10.38;;;2.85;;
57443;SDS011;43289;52.962;6.196;2023-02-17T15:21:23;11.95;;;3.80;;
57443;SDS011;43289;52.962;6.196;2023-02-17T15:23:50;15.95;;;3.60;;
57443;SDS011;43289;52.962;6.196;2023-02-17T15:26:16;11.82;;;3.50;;
57443;SDS011;43289;52.962;6.196;2023-02-17T15:28:42;13.35;;;3.60;;
57443;SDS011;43289;52.962;6.196;2023-02-17T15:31:09;10.27;;;2.70;;
57443;SDS011;43289;52.962;6.196;2023-02-17T15:33:36;11.57;;;2.90;;
57443;SDS011;43289;52.962;6.196;2023-02-17T15:36:02;11.60;;;3.25;;
57443;SDS011;43289;52.962;6.196;2023-02-17T15:38:28;12.73;;;2.92;;
57443;SDS011;43289;52.962;6.196;2023-02-17T15:40:54;14.52;;;3.22;;
57443;SDS011;43289;52.962;6.196;2023-02-17T15:43:22;11.48;;;3.47;;
57443;SDS011;43289;52.962;6.196;2023-02-17T15:45:52;12.82;;;2.95;;
57443;SDS011;43289;52.962;6.196;2023-02-17T15:48:25;12.15;;;2.85;;
57443;SDS011;43289;52.962;6.196;2023-02-17T15:53:34;10.90;;;3.33;;
57443;SDS011;43289;52.962;6.196;2023-02-17T15:56:00;8.88;;;3.03;;
57443;SDS011;43289;52.962;6.196;2023-02-17T15:58:26;9.20;;;2.45;;
57443;SDS011;43289;52.962;6.196;2023-02-17T16:00:54;13.57;;;2.70;;
57443;SDS011;43289;52.962;6.196;2023-02-17T16:03:23;12.38;;;3.33;;
57443;SDS011;43289;52.962;6.196;2023-02-17T16:05:49;12.20;;;3.83;;
57443;SDS011;43289;52.962;6.196;2023-02-17T16:08:15;11.50;;;3.30;;
57443;SDS011;43289;52.962;6.196;2023-02-17T16:10:41;5.43;;;2.03;;
57443;SDS011;43289;52.962;6.196;2023-02-17T16:13:11;13.45;;;3.65;;